sensor_id;sensor_type;location;lat;lon;timestamp;temperature;humidity
25046;DHT22;13044;49.304;12.840;2024-02-15T00:02:23;8.50;99.90
25046;DHT22;13044;49.304;12.840;2024-02-15T00:04:50;8.50;99.90
25046;DHT22;13044;49.304;12.840;2024-02-15T00:07:17;8.60;99.90
25046;DHT22;13044;49.304;12.840;2024-02-15T00:09:45;8.50;99.90
25046;DHT22;13044;49.304;12.840;2024-02-15T00:12:12;8.50;99.90
25046;DHT22;13044;49.304;12.840;2024-02-15T00:14:39;8.50;99.90
25046;DHT22;13044;49.304;12.840;2024-02-15T00:17:07;8.50;99.90
25046;DHT22;13044;49.304;12.840;2024-02-15T00:19:33;8.50;99.90
25046;DHT22;13044;49.304;12.840;2024-02-15T00:22:01;8.50;99.90
25046;DHT22;13044;49.304;12.840;2024-02-15T00:24:27;8.40;99.90
25046;DHT22;13044;49.304;12.840;2024-02-15T00:26:54;8.40;99.90
25046;DHT22;13044;49.304;12.840;2024-02-15T00:29:22;8.30;99.90
25046;DHT22;13044;49.304;12.840;2024-02-15T00:31:49;8.30;99.90
25046;DHT22;13044;49.304;12.840;2024-02-15T00:34:16;8.30;99.90
25046;DHT22;13044;49.304;12.840;2024-02-15T00:36:44;8.30;99.90
25046;DHT22;13044;49.304;12.840;2024-02-15T00:39:11;8.30;99.90
25046;DHT22;13044;49.304;12.840;2024-02-15T00:41:40;8.30;99.90
25046;DHT22;13044;49.304;12.840;2024-02-15T00:44:09;8.40;99.90
25046;DHT22;13044;49.304;12.840;2024-02-15T00:46:39;8.40;99.90
25046;DHT22;13044;49.304;12.840;2024-02-15T00:49:08;8.40;99.90
25046;DHT22;13044;49.304;12.840;2024-02-15T00:51:36;8.40;99.90
25046;DHT22;13044;49.304;12.840;2024-02-15T00:54:03;8.40;99.90
25046;DHT22;13044;49.304;12.840;2024-02-15T00:56:31;8.40;99.90
25046;DHT22;13044;49.304;12.840;2024-02-15T00:58:59;8.40;99.90
25046;DHT22;13044;49.304;12.840;2024-02-15T01:01:29;8.40;99.90
25046;DHT22;13044;49.304;12.840;2024-02-15T01:03:57;8.50;99.90
25046;DHT22;13044;49.304;12.840;2024-02-15T01:06:24;8.50;99.90
25046;DHT22;13044;49.304;12.840;2024-02-15T01:08:51;8.50;99.90
25046;DHT22;13044;49.304;12.840;2024-02-15T01:11:18;8.50;99.90
25046;DHT22;13044;49.304;12.840;2024-02-15T01:13:45;8.50;99.90
25046;DHT22;13044;49.304;12.840;2024-02-15T01:16:12;8.40;99.90
25046;DHT22;13044;49.304;12.840;2024-02-15T01:18:39;8.40;99.90
25046;DHT22;13044;49.304;12.840;2024-02-15T01:21:06;8.40;99.90
25046;DHT22;13044;49.304;12.840;2024-02-15T01:23:33;8.40;99.90
25046;DHT22;13044;49.304;12.840;2024-02-15T01:26:03;8.30;99.90
25046;DHT22;13044;49.304;12.840;2024-02-15T01:28:31;8.40;99.90
25046;DHT22;13044;49.304;12.840;2024-02-15T01:30:58;8.40;99.90
25046;DHT22;13044;49.304;12.840;2024-02-15T01:33:25;8.40;99.90
25046;DHT22;13044;49.304;12.840;2024-02-15T01:35:53;8.50;99.90
25046;DHT22;13044;49.304;12.840;2024-02-15T01:38:21;8.50;99.90
25046;DHT22;13044;49.304;12.840;2024-02-15T01:40:47;8.50;99.90
25046;DHT22;13044;49.304;12.840;2024-02-15T01:43:15;8.50;99.90
25046;DHT22;13044;49.304;12.840;2024-02-15T01:45:42;8.50;99.90
25046;DHT22;13044;49.304;12.840;2024-02-15T01:48:10;8.50;99.90
25046;DHT22;13044;49.304;12.840;2024-02-15T01:50:37;8.50;99.90
25046;DHT22;13044;49.304;12.840;2024-02-15T01:53:07;8.60;99.90
25046;DHT22;13044;49.304;12.840;2024-02-15T01:55:37;8.60;99.90
25046;DHT22;13044;49.304;12.840;2024-02-15T01:58:06;8.60;99.90
25046;DHT22;13044;49.304;12.840;2024-02-15T02:00:34;8.60;99.90
25046;DHT22;13044;49.304;12.840;2024-02-15T02:03:03;8.60;99.90
25046;DHT22;13044;49.304;12.840;2024-02-15T02:05:31;8.50;99.90
25046;DHT22;13044;49.304;12.840;2024-02-15T02:07:58;8.50;99.90
25046;DHT22;13044;49.304;12.840;2024-02-15T02:10:28;8.50;99.90
25046;DHT22;13044;49.304;12.840;2024-02-15T02:13:00;8.50;99.90
25046;DHT22;13044;49.304;12.840;2024-02-15T02:15:32;8.60;99.90
25046;DHT22;13044;49.304;12.840;2024-02-15T02:18:00;8.60;99.90
25046;DHT22;13044;49.304;12.840;2024-02-15T02:20:27;8.60;99.90
25046;DHT22;13044;49.304;12.840;2024-02-15T02:23:15;8.60;99.90
25046;DHT22;13044;49.304;12.840;2024-02-15T02:25:45;8.60;99.90
25046;DHT22;13044;49.304;12.840;2024-02-15T02:28:15;8.60;99.90
25046;DHT22;13044;49.304;12.840;2024-02-15T02:30:43;8.60;99.90
25046;DHT22;13044;49.304;12.840;2024-02-15T02:33:12;8.60;99.90
25046;DHT22;13044;49.304;12.840;2024-02-15T02:35:46;8.60;99.90
25046;DHT22;13044;49.304;12.840;2024-02-15T02:38:15;8.60;99.90
25046;DHT22;13044;49.304;12.840;2024-02-15T02:40:42;8.60;99.90
25046;DHT22;13044;49.304;12.840;2024-02-15T02:43:09;8.60;99.90
25046;DHT22;13044;49.304;12.840;2024-02-15T02:45:37;8.60;99.90
25046;DHT22;13044;49.304;12.840;2024-02-15T02:48:04;8.60;99.90
25046;DHT22;13044;49.304;12.840;2024-02-15T02:50:32;8.60;99.90
25046;DHT22;13044;49.304;12.840;2024-02-15T02:52:59;8.60;99.90
25046;DHT22;13044;49.304;12.840;2024-02-15T02:55:26;8.60;99.90
25046;DHT22;13044;49.304;12.840;2024-02-15T02:57:57;8.60;99.90
25046;DHT22;13044;49.304;12.840;2024-02-15T03:00:24;8.60;99.90
25046;DHT22;13044;49.304;12.840;2024-02-15T03:02:50;8.60;99.90
25046;DHT22;13044;49.304;12.840;2024-02-15T03:05:17;8.60;99.90
25046;DHT22;13044;49.304;12.840;2024-02-15T03:07:48;8.70;99.90
25046;DHT22;13044;49.304;12.840;2024-02-15T03:10:15;8.60;99.90
25046;DHT22;13044;49.304;12.840;2024-02-15T03:12:42;8.70;99.90
25046;DHT22;13044;49.304;12.840;2024-02-15T03:15:16;8.60;99.90
25046;DHT22;13044;49.304;12.840;2024-02-15T03:17:46;8.70;99.90
25046;DHT22;13044;49.304;12.840;2024-02-15T03:20:15;8.70;99.90
25046;DHT22;13044;49.304;12.840;2024-02-15T03:22:57;8.70;99.90
25046;DHT22;13044;49.304;12.840;2024-02-15T03:25:25;8.70;99.90
25046;DHT22;13044;49.304;12.840;2024-02-15T03:27:57;8.70;99.90
25046;DHT22;13044;49.304;12.840;2024-02-15T03:30:28;8.60;99.90
25046;DHT22;13044;49.304;12.840;2024-02-15T03:32:58;8.60;99.90
25046;DHT22;13044;49.304;12.840;2024-02-15T03:35:27;8.60;99.90
25046;DHT22;13044;49.304;12.840;2024-02-15T03:37:55;8.60;99.90
25046;DHT22;13044;49.304;12.840;2024-02-15T03:40:23;8.60;99.90
25046;DHT22;13044;49.304;12.840;2024-02-15T03:42:53;8.70;99.90
25046;DHT22;13044;49.304;12.840;2024-02-15T03:45:20;8.70;99.90
25046;DHT22;13044;49.304;12.840;2024-02-15T03:47:53;8.70;99.90
25046;DHT22;13044;49.304;12.840;2024-02-15T03:50:20;8.70;99.90
25046;DHT22;13044;49.304;12.840;2024-02-15T03:52:51;8.70;99.90
25046;DHT22;13044;49.304;12.840;2024-02-15T03:55:18;8.70;99.90
25046;DHT22;13044;49.304;12.840;2024-02-15T03:57:45;8.70;99.90
25046;DHT22;13044;49.304;12.840;2024-02-15T04:00:13;8.70;99.90
25046;DHT22;13044;49.304;12.840;2024-02-15T04:02:41;8.70;99.90
25046;DHT22;13044;49.304;12.840;2024-02-15T04:05:09;8.70;99.90
25046;DHT22;13044;49.304;12.840;2024-02-15T04:07:39;8.70;99.90
25046;DHT22;13044;49.304;12.840;2024-02-15T04:10:06;8.80;99.90
25046;DHT22;13044;49.304;12.840;2024-02-15T04:12:35;8.70;99.90
25046;DHT22;13044;49.304;12.840;2024-02-15T04:15:02;8.70;99.90
25046;DHT22;13044;49.304;12.840;2024-02-15T04:17:40;8.70;99.90
25046;DHT22;13044;49.304;12.840;2024-02-15T04:20:09;8.70;99.90
25046;DHT22;13044;49.304;12.840;2024-02-15T04:22:38;8.70;99.90
25046;DHT22;13044;49.304;12.840;2024-02-15T04:25:06;8.70;99.90
25046;DHT22;13044;49.304;12.840;2024-02-15T04:27:36;8.70;99.90
25046;DHT22;13044;49.304;12.840;2024-02-15T04:30:03;8.80;99.90
25046;DHT22;13044;49.304;12.840;2024-02-15T04:32:31;8.80;99.90
25046;DHT22;13044;49.304;12.840;2024-02-15T04:35:01;8.80;99.90
25046;DHT22;13044;49.304;12.840;2024-02-15T04:37:29;8.80;99.90
25046;DHT22;13044;49.304;12.840;2024-02-15T04:39:59;8.80;99.90
25046;DHT22;13044;49.304;12.840;2024-02-15T04:42:34;8.80;99.90
25046;DHT22;13044;49.304;12.840;2024-02-15T04:45:02;8.80;99.90
25046;DHT22;13044;49.304;12.840;2024-02-15T04:47:32;8.90;99.90
25046;DHT22;13044;49.304;12.840;2024-02-15T04:49:59;8.80;99.90
25046;DHT22;13044;49.304;12.840;2024-02-15T04:52:26;8.80;99.90
25046;DHT22;13044;49.304;12.840;2024-02-15T04:54:53;8.80;99.90
25046;DHT22;13044;49.304;12.840;2024-02-15T04:57:25;8.80;99.90
25046;DHT22;13044;49.304;12.840;2024-02-15T04:59:55;8.90;99.90
25046;DHT22;13044;49.304;12.840;2024-02-15T05:02:22;8.90;99.90
25046;DHT22;13044;49.304;12.840;2024-02-15T05:04:51;8.80;99.90
25046;DHT22;13044;49.304;12.840;2024-02-15T05:07:23;8.80;99.90
25046;DHT22;13044;49.304;12.840;2024-02-15T05:09:50;8.90;99.90
25046;DHT22;13044;49.304;12.840;2024-02-15T05:12:24;8.90;99.90
25046;DHT22;13044;49.304;12.840;2024-02-15T05:14:51;8.90;99.90
25046;DHT22;13044;49.304;12.840;2024-02-15T05:17:20;8.90;99.90
25046;DHT22;13044;49.304;12.840;2024-02-15T05:19:49;8.90;99.90
25046;DHT22;13044;49.304;12.840;2024-02-15T05:22:16;8.90;99.90
25046;DHT22;13044;49.304;12.840;2024-02-15T05:24:45;8.90;99.90
25046;DHT22;13044;49.304;12.840;2024-02-15T05:27:12;8.90;99.90
25046;DHT22;13044;49.304;12.840;2024-02-15T05:29:39;8.90;99.90
25046;DHT22;13044;49.304;12.840;2024-02-15T05:32:09;8.90;99.90
25046;DHT22;13044;49.304;12.840;2024-02-15T05:34:37;8.90;99.90
25046;DHT22;13044;49.304;12.840;2024-02-15T05:37:06;8.90;99.90
25046;DHT22;13044;49.304;12.840;2024-02-15T05:39:33;8.90;99.90
25046;DHT22;13044;49.304;12.840;2024-02-15T05:42:00;8.90;99.90
25046;DHT22;13044;49.304;12.840;2024-02-15T05:44:28;8.90;99.90
25046;DHT22;13044;49.304;12.840;2024-02-15T05:46:54;8.90;99.90
25046;DHT22;13044;49.304;12.840;2024-02-15T05:49:21;8.90;99.90
25046;DHT22;13044;49.304;12.840;2024-02-15T05:51:50;8.90;99.90
25046;DHT22;13044;49.304;12.840;2024-02-15T05:54:19;8.90;99.90
25046;DHT22;13044;49.304;12.840;2024-02-15T05:56:49;8.90;99.90
25046;DHT22;13044;49.304;12.840;2024-02-15T05:59:19;8.90;99.90
25046;DHT22;13044;49.304;12.840;2024-02-15T06:01:47;8.90;99.90
25046;DHT22;13044;49.304;12.840;2024-02-15T06:04:17;8.90;99.90
25046;DHT22;13044;49.304;12.840;2024-02-15T06:06:44;8.90;99.90
25046;DHT22;13044;49.304;12.840;2024-02-15T06:09:15;8.90;99.90
25046;DHT22;13044;49.304;12.840;2024-02-15T06:11:43;8.90;99.90
25046;DHT22;13044;49.304;12.840;2024-02-15T06:14:12;8.90;99.90
25046;DHT22;13044;49.304;12.840;2024-02-15T06:16:43;8.90;99.90
25046;DHT22;13044;49.304;12.840;2024-02-15T06:19:11;8.90;99.90
25046;DHT22;13044;49.304;12.840;2024-02-15T06:21:38;8.90;99.90
25046;DHT22;13044;49.304;12.840;2024-02-15T06:24:04;8.90;99.90
25046;DHT22;13044;49.304;12.840;2024-02-15T06:26:32;8.90;99.90
25046;DHT22;13044;49.304;12.840;2024-02-15T06:29:00;8.90;99.90
25046;DHT22;13044;49.304;12.840;2024-02-15T06:31:45;8.90;99.90
25046;DHT22;13044;49.304;12.840;2024-02-15T06:34:31;8.90;99.90
25046;DHT22;13044;49.304;12.840;2024-02-15T06:37:35;8.90;99.90
25046;DHT22;13044;49.304;12.840;2024-02-15T06:40:21;8.90;99.90
25046;DHT22;13044;49.304;12.840;2024-02-15T06:42:49;8.90;99.90
25046;DHT22;13044;49.304;12.840;2024-02-15T06:45:17;8.90;99.90
25046;DHT22;13044;49.304;12.840;2024-02-15T06:47:44;8.90;99.90
25046;DHT22;13044;49.304;12.840;2024-02-15T06:50:12;8.90;99.90
25046;DHT22;13044;49.304;12.840;2024-02-15T06:52:43;8.90;99.90
25046;DHT22;13044;49.304;12.840;2024-02-15T06:55:11;8.90;99.90
25046;DHT22;13044;49.304;12.840;2024-02-15T06:57:38;8.90;99.90
25046;DHT22;13044;49.304;12.840;2024-02-15T07:00:09;8.90;99.90
25046;DHT22;13044;49.304;12.840;2024-02-15T07:02:41;9.00;99.90
25046;DHT22;13044;49.304;12.840;2024-02-15T07:05:11;9.00;99.90
25046;DHT22;13044;49.304;12.840;2024-02-15T07:07:38;8.90;99.90
25046;DHT22;13044;49.304;12.840;2024-02-15T07:10:06;9.00;99.90
25046;DHT22;13044;49.304;12.840;2024-02-15T07:12:33;9.00;99.90
25046;DHT22;13044;49.304;12.840;2024-02-15T07:15:00;9.00;99.90
25046;DHT22;13044;49.304;12.840;2024-02-15T07:17:30;9.00;99.90
25046;DHT22;13044;49.304;12.840;2024-02-15T07:19:57;9.00;99.90
25046;DHT22;13044;49.304;12.840;2024-02-15T07:22:24;9.00;99.90
25046;DHT22;13044;49.304;12.840;2024-02-15T07:24:51;9.00;99.90
25046;DHT22;13044;49.304;12.840;2024-02-15T07:27:18;9.00;99.90
25046;DHT22;13044;49.304;12.840;2024-02-15T07:29:45;9.10;99.90
25046;DHT22;13044;49.304;12.840;2024-02-15T07:32:12;9.00;99.90
25046;DHT22;13044;49.304;12.840;2024-02-15T07:34:39;9.00;99.90
25046;DHT22;13044;49.304;12.840;2024-02-15T07:37:08;9.00;99.90
25046;DHT22;13044;49.304;12.840;2024-02-15T07:39:35;9.10;99.90
25046;DHT22;13044;49.304;12.840;2024-02-15T07:42:03;9.00;99.90
25046;DHT22;13044;49.304;12.840;2024-02-15T07:44:31;9.10;99.90
25046;DHT22;13044;49.304;12.840;2024-02-15T07:46:59;9.10;99.90
25046;DHT22;13044;49.304;12.840;2024-02-15T07:49:29;9.10;99.90
25046;DHT22;13044;49.304;12.840;2024-02-15T07:51:56;9.10;99.90
25046;DHT22;13044;49.304;12.840;2024-02-15T07:54:24;9.10;99.90
25046;DHT22;13044;49.304;12.840;2024-02-15T07:56:51;9.10;99.90
25046;DHT22;13044;49.304;12.840;2024-02-15T07:59:18;9.20;99.90
25046;DHT22;13044;49.304;12.840;2024-02-15T08:01:46;9.20;99.90
25046;DHT22;13044;49.304;12.840;2024-02-15T08:04:14;9.30;99.90
25046;DHT22;13044;49.304;12.840;2024-02-15T08:06:43;9.30;99.90
25046;DHT22;13044;49.304;12.840;2024-02-15T08:09:11;9.40;99.90
25046;DHT22;13044;49.304;12.840;2024-02-15T08:11:40;9.30;99.90
25046;DHT22;13044;49.304;12.840;2024-02-15T08:14:07;9.40;99.90
25046;DHT22;13044;49.304;12.840;2024-02-15T08:16:40;9.40;99.90
25046;DHT22;13044;49.304;12.840;2024-02-15T08:19:08;9.40;99.90
25046;DHT22;13044;49.304;12.840;2024-02-15T08:21:35;9.40;99.90
25046;DHT22;13044;49.304;12.840;2024-02-15T08:24:05;9.40;99.90
25046;DHT22;13044;49.304;12.840;2024-02-15T08:26:35;9.50;99.90
25046;DHT22;13044;49.304;12.840;2024-02-15T08:29:05;9.50;99.90
25046;DHT22;13044;49.304;12.840;2024-02-15T08:31:35;9.50;99.90
25046;DHT22;13044;49.304;12.840;2024-02-15T08:34:03;9.60;99.90
25046;DHT22;13044;49.304;12.840;2024-02-15T08:36:32;9.60;99.90
25046;DHT22;13044;49.304;12.840;2024-02-15T08:38:59;9.70;99.90
25046;DHT22;13044;49.304;12.840;2024-02-15T08:41:27;9.70;99.90
25046;DHT22;13044;49.304;12.840;2024-02-15T08:43:54;9.70;99.90
25046;DHT22;13044;49.304;12.840;2024-02-15T08:46:24;9.80;99.90
25046;DHT22;13044;49.304;12.840;2024-02-15T08:48:53;9.80;99.90
25046;DHT22;13044;49.304;12.840;2024-02-15T08:51:20;9.90;99.90
25046;DHT22;13044;49.304;12.840;2024-02-15T08:53:50;9.90;99.90
25046;DHT22;13044;49.304;12.840;2024-02-15T08:56:18;10.00;99.90
25046;DHT22;13044;49.304;12.840;2024-02-15T08:58:45;10.10;99.90
25046;DHT22;13044;49.304;12.840;2024-02-15T09:01:12;10.10;99.90
25046;DHT22;13044;49.304;12.840;2024-02-15T09:03:40;10.20;99.90
25046;DHT22;13044;49.304;12.840;2024-02-15T09:06:07;10.30;99.90
25046;DHT22;13044;49.304;12.840;2024-02-15T09:08:35;10.40;99.90
25046;DHT22;13044;49.304;12.840;2024-02-15T09:11:02;10.50;99.90
25046;DHT22;13044;49.304;12.840;2024-02-15T09:13:32;10.60;99.90
25046;DHT22;13044;49.304;12.840;2024-02-15T09:16:00;10.70;99.90
25046;DHT22;13044;49.304;12.840;2024-02-15T09:18:27;10.80;99.90
25046;DHT22;13044;49.304;12.840;2024-02-15T09:20:54;10.90;99.90
25046;DHT22;13044;49.304;12.840;2024-02-15T09:23:22;11.10;99.90
25046;DHT22;13044;49.304;12.840;2024-02-15T09:25:52;11.10;99.90
25046;DHT22;13044;49.304;12.840;2024-02-15T09:28:19;11.20;99.90
25046;DHT22;13044;49.304;12.840;2024-02-15T09:30:49;11.30;99.90
25046;DHT22;13044;49.304;12.840;2024-02-15T09:33:22;11.30;99.90
25046;DHT22;13044;49.304;12.840;2024-02-15T09:35:49;11.40;99.90
25046;DHT22;13044;49.304;12.840;2024-02-15T09:38:16;11.40;99.90
25046;DHT22;13044;49.304;12.840;2024-02-15T09:40:43;11.40;99.90
25046;DHT22;13044;49.304;12.840;2024-02-15T09:43:11;11.40;99.90
25046;DHT22;13044;49.304;12.840;2024-02-15T09:45:42;11.50;99.90
25046;DHT22;13044;49.304;12.840;2024-02-15T09:48:10;11.50;99.90
25046;DHT22;13044;49.304;12.840;2024-02-15T09:50:42;11.50;99.90
25046;DHT22;13044;49.304;12.840;2024-02-15T09:53:13;11.60;99.90
25046;DHT22;13044;49.304;12.840;2024-02-15T09:55:42;11.70;99.90
25046;DHT22;13044;49.304;12.840;2024-02-15T09:58:09;11.70;99.90
25046;DHT22;13044;49.304;12.840;2024-02-15T10:00:38;11.80;99.90
25046;DHT22;13044;49.304;12.840;2024-02-15T10:03:06;11.80;99.90
25046;DHT22;13044;49.304;12.840;2024-02-15T10:05:36;11.80;99.90
25046;DHT22;13044;49.304;12.840;2024-02-15T10:08:07;11.80;99.90
25046;DHT22;13044;49.304;12.840;2024-02-15T10:10:34;11.80;99.90
25046;DHT22;13044;49.304;12.840;2024-02-15T10:13:02;11.90;99.90
25046;DHT22;13044;49.304;12.840;2024-02-15T10:15:39;12.10;99.90
25046;DHT22;13044;49.304;12.840;2024-02-15T10:18:11;12.40;99.90
25046;DHT22;13044;49.304;12.840;2024-02-15T10:20:40;12.60;99.90
25046;DHT22;13044;49.304;12.840;2024-02-15T10:23:15;12.70;99.90
25046;DHT22;13044;49.304;12.840;2024-02-15T10:25:45;12.70;99.90
25046;DHT22;13044;49.304;12.840;2024-02-15T10:28:20;12.70;99.90
25046;DHT22;13044;49.304;12.840;2024-02-15T10:30:50;12.80;99.90
25046;DHT22;13044;49.304;12.840;2024-02-15T10:33:20;12.90;99.90
25046;DHT22;13044;49.304;12.840;2024-02-15T10:36:09;13.00;99.90
25046;DHT22;13044;49.304;12.840;2024-02-15T10:38:38;13.10;99.90
25046;DHT22;13044;49.304;12.840;2024-02-15T10:41:06;13.20;99.90
25046;DHT22;13044;49.304;12.840;2024-02-15T10:43:35;13.10;99.90
25046;DHT22;13044;49.304;12.840;2024-02-15T10:46:04;13.20;99.90
25046;DHT22;13044;49.304;12.840;2024-02-15T10:48:36;13.30;99.90
25046;DHT22;13044;49.304;12.840;2024-02-15T10:51:10;13.40;99.90
25046;DHT22;13044;49.304;12.840;2024-02-15T10:53:44;13.40;99.90
25046;DHT22;13044;49.304;12.840;2024-02-15T10:56:18;13.50;99.90
25046;DHT22;13044;49.304;12.840;2024-02-15T10:58:56;13.60;99.90
25046;DHT22;13044;49.304;12.840;2024-02-15T11:01:40;13.50;99.90
25046;DHT22;13044;49.304;12.840;2024-02-15T11:04:14;13.50;99.90
25046;DHT22;13044;49.304;12.840;2024-02-15T11:06:43;13.60;99.90
25046;DHT22;13044;49.304;12.840;2024-02-15T11:09:12;13.70;99.90
25046;DHT22;13044;49.304;12.840;2024-02-15T11:11:41;13.80;99.90
25046;DHT22;13044;49.304;12.840;2024-02-15T11:14:26;13.90;99.90
25046;DHT22;13044;49.304;12.840;2024-02-15T11:16:58;13.90;99.90
25046;DHT22;13044;49.304;12.840;2024-02-15T11:19:40;14.00;99.90
25046;DHT22;13044;49.304;12.840;2024-02-15T11:22:16;14.10;99.90
25046;DHT22;13044;49.304;12.840;2024-02-15T11:24:52;14.20;99.90
25046;DHT22;13044;49.304;12.840;2024-02-15T11:27:27;14.20;99.90
25046;DHT22;13044;49.304;12.840;2024-02-15T11:30:00;14.10;99.90
25046;DHT22;13044;49.304;12.840;2024-02-15T11:35:16;14.20;99.90
25046;DHT22;13044;49.304;12.840;2024-02-15T11:40:27;14.30;99.90
25046;DHT22;13044;49.304;12.840;2024-02-15T11:43:09;14.40;99.90
25046;DHT22;13044;49.304;12.840;2024-02-15T11:45:37;14.60;99.90
25046;DHT22;13044;49.304;12.840;2024-02-15T11:48:10;14.70;99.90
25046;DHT22;13044;49.304;12.840;2024-02-15T11:50:40;14.90;99.90
25046;DHT22;13044;49.304;12.840;2024-02-15T11:53:08;15.00;99.90
25046;DHT22;13044;49.304;12.840;2024-02-15T11:55:39;15.20;99.90
25046;DHT22;13044;49.304;12.840;2024-02-15T11:58:09;15.30;99.90
25046;DHT22;13044;49.304;12.840;2024-02-15T12:00:38;15.60;99.90
25046;DHT22;13044;49.304;12.840;2024-02-15T12:03:25;15.70;99.90
25046;DHT22;13044;49.304;12.840;2024-02-15T12:06:27;15.80;99.90
25046;DHT22;13044;49.304;12.840;2024-02-15T12:09:17;15.80;99.90
25046;DHT22;13044;49.304;12.840;2024-02-15T12:12:05;16.00;99.90
25046;DHT22;13044;49.304;12.840;2024-02-15T12:14:57;16.20;99.90
25046;DHT22;13044;49.304;12.840;2024-02-15T12:17:46;16.30;99.90
25046;DHT22;13044;49.304;12.840;2024-02-15T12:20:32;16.30;99.90
25046;DHT22;13044;49.304;12.840;2024-02-15T12:22:59;16.00;99.90
25046;DHT22;13044;49.304;12.840;2024-02-15T12:25:27;16.00;99.90
25046;DHT22;13044;49.304;12.840;2024-02-15T12:27:56;16.10;99.90
25046;DHT22;13044;49.304;12.840;2024-02-15T12:30:26;16.40;99.90
25046;DHT22;13044;49.304;12.840;2024-02-15T12:33:12;16.50;99.90
25046;DHT22;13044;49.304;12.840;2024-02-15T12:35:46;16.40;99.90
25046;DHT22;13044;49.304;12.840;2024-02-15T12:38:13;16.30;99.90
25046;DHT22;13044;49.304;12.840;2024-02-15T12:40:43;16.20;99.90
25046;DHT22;13044;49.304;12.840;2024-02-15T12:43:13;16.20;99.90
25046;DHT22;13044;49.304;12.840;2024-02-15T12:45:42;16.10;99.90
25046;DHT22;13044;49.304;12.840;2024-02-15T12:48:09;16.10;99.90
25046;DHT22;13044;49.304;12.840;2024-02-15T12:50:38;16.40;99.90
25046;DHT22;13044;49.304;12.840;2024-02-15T12:53:05;16.70;99.90
25046;DHT22;13044;49.304;12.840;2024-02-15T12:55:36;16.70;99.90
25046;DHT22;13044;49.304;12.840;2024-02-15T12:58:05;16.80;99.90
25046;DHT22;13044;49.304;12.840;2024-02-15T13:00:42;17.00;99.90
25046;DHT22;13044;49.304;12.840;2024-02-15T13:03:09;17.10;99.90
25046;DHT22;13044;49.304;12.840;2024-02-15T13:05:38;17.00;99.90
25046;DHT22;13044;49.304;12.840;2024-02-15T13:08:07;17.00;99.90
25046;DHT22;13044;49.304;12.840;2024-02-15T13:10:40;17.10;99.90
25046;DHT22;13044;49.304;12.840;2024-02-15T13:13:08;17.10;99.90
25046;DHT22;13044;49.304;12.840;2024-02-15T13:15:37;16.90;99.90
25046;DHT22;13044;49.304;12.840;2024-02-15T13:18:06;16.80;99.90
25046;DHT22;13044;49.304;12.840;2024-02-15T13:20:37;16.80;99.90
25046;DHT22;13044;49.304;12.840;2024-02-15T13:23:09;16.70;99.90
25046;DHT22;13044;49.304;12.840;2024-02-15T13:25:57;16.60;99.90
25046;DHT22;13044;49.304;12.840;2024-02-15T13:28:24;16.50;99.90
25046;DHT22;13044;49.304;12.840;2024-02-15T13:30:51;16.50;99.90
25046;DHT22;13044;49.304;12.840;2024-02-15T13:33:21;16.30;99.90
25046;DHT22;13044;49.304;12.840;2024-02-15T13:35:49;16.30;99.90
25046;DHT22;13044;49.304;12.840;2024-02-15T13:38:16;16.20;99.90
25046;DHT22;13044;49.304;12.840;2024-02-15T13:40:50;16.10;99.90
25046;DHT22;13044;49.304;12.840;2024-02-15T13:43:18;16.10;99.90
25046;DHT22;13044;49.304;12.840;2024-02-15T13:45:45;16.10;99.90
25046;DHT22;13044;49.304;12.840;2024-02-15T13:48:12;16.00;99.90
25046;DHT22;13044;49.304;12.840;2024-02-15T13:50:41;16.00;99.90
25046;DHT22;13044;49.304;12.840;2024-02-15T13:53:09;15.90;99.90
25046;DHT22;13044;49.304;12.840;2024-02-15T13:55:37;15.80;99.90
25046;DHT22;13044;49.304;12.840;2024-02-15T13:58:04;15.70;99.90
25046;DHT22;13044;49.304;12.840;2024-02-15T14:00:31;15.60;99.90
25046;DHT22;13044;49.304;12.840;2024-02-15T14:03:01;15.50;99.90
25046;DHT22;13044;49.304;12.840;2024-02-15T14:05:30;15.50;99.90
25046;DHT22;13044;49.304;12.840;2024-02-15T14:07:59;15.50;99.90
25046;DHT22;13044;49.304;12.840;2024-02-15T14:10:33;15.40;99.90
25046;DHT22;13044;49.304;12.840;2024-02-15T14:13:04;15.40;99.90
25046;DHT22;13044;49.304;12.840;2024-02-15T14:15:36;15.30;99.90
25046;DHT22;13044;49.304;12.840;2024-02-15T14:18:09;15.30;99.90
25046;DHT22;13044;49.304;12.840;2024-02-15T14:20:39;15.30;99.90
25046;DHT22;13044;49.304;12.840;2024-02-15T14:23:06;15.30;99.90
25046;DHT22;13044;49.304;12.840;2024-02-15T14:25:33;15.30;99.90
25046;DHT22;13044;49.304;12.840;2024-02-15T14:28:01;15.30;99.90
25046;DHT22;13044;49.304;12.840;2024-02-15T14:30:29;15.40;99.90
25046;DHT22;13044;49.304;12.840;2024-02-15T14:33:15;15.60;99.90
25046;DHT22;13044;49.304;12.840;2024-02-15T14:35:45;15.70;99.90
25046;DHT22;13044;49.304;12.840;2024-02-15T14:38:13;15.70;99.90
25046;DHT22;13044;49.304;12.840;2024-02-15T14:40:47;15.70;99.90
25046;DHT22;13044;49.304;12.840;2024-02-15T14:43:24;15.70;99.90
25046;DHT22;13044;49.304;12.840;2024-02-15T14:45:53;15.70;99.90
25046;DHT22;13044;49.304;12.840;2024-02-15T14:48:20;15.70;99.90
25046;DHT22;13044;49.304;12.840;2024-02-15T14:50:48;15.80;99.90
25046;DHT22;13044;49.304;12.840;2024-02-15T14:53:18;15.70;99.90
25046;DHT22;13044;49.304;12.840;2024-02-15T14:55:45;15.70;99.90
25046;DHT22;13044;49.304;12.840;2024-02-15T14:58:13;15.70;99.90
25046;DHT22;13044;49.304;12.840;2024-02-15T15:00:41;15.60;99.90
25046;DHT22;13044;49.304;12.840;2024-02-15T15:03:10;15.60;99.90
25046;DHT22;13044;49.304;12.840;2024-02-15T15:05:41;15.60;99.90
25046;DHT22;13044;49.304;12.840;2024-02-15T15:08:28;15.50;99.90
25046;DHT22;13044;49.304;12.840;2024-02-15T15:11:14;15.50;99.90
25046;DHT22;13044;49.304;12.840;2024-02-15T15:13:59;15.40;99.90
25046;DHT22;13044;49.304;12.840;2024-02-15T15:16:26;15.30;99.90
25046;DHT22;13044;49.304;12.840;2024-02-15T15:18:55;15.20;99.90
25046;DHT22;13044;49.304;12.840;2024-02-15T15:21:23;15.20;99.90
25046;DHT22;13044;49.304;12.840;2024-02-15T15:23:51;15.20;99.90
25046;DHT22;13044;49.304;12.840;2024-02-15T15:26:19;15.10;99.90
25046;DHT22;13044;49.304;12.840;2024-02-15T15:28:48;15.10;99.90
25046;DHT22;13044;49.304;12.840;2024-02-15T15:31:16;15.00;99.90
25046;DHT22;13044;49.304;12.840;2024-02-15T15:33:43;14.90;99.90
25046;DHT22;13044;49.304;12.840;2024-02-15T15:36:11;14.90;99.90
25046;DHT22;13044;49.304;12.840;2024-02-15T15:38:38;14.80;99.90
25046;DHT22;13044;49.304;12.840;2024-02-15T15:41:09;14.80;99.90
25046;DHT22;13044;49.304;12.840;2024-02-15T15:43:36;14.70;99.90
25046;DHT22;13044;49.304;12.840;2024-02-15T15:46:04;14.60;99.90
25046;DHT22;13044;49.304;12.840;2024-02-15T15:48:32;14.50;99.90